Valley Head, Alabama
Current Conditions -  °F | °C
As of 2:35 PM on Monday 22 Dec 2014 (Local Time) from K4A9 Reporting Station
Haze Haze  
Wind Chill: 43°   Ceiling: 600
Heat Index: 46°   Visibility: 5mi
Dew Point: 41°   Wind: 7mph
Humidity: 81%   Direction: 140°SE
Pressure: 29.85"   Gusts: NA
Location:  34.57°N, 85.61°W
Report Text: K4A9 222035Z AUTO 14006KT 5SM HZ OVC006 08/05 A2985 RMK AO2
Loading
Personal Weather Stations






























Interactive Weather Map New forecast layout! Learn more

10-Day Weather Forecast

Advertisements
Track Severe Weather on mobile